BBC Switzerland — DGFL2 — position and weather

sailwx.info

Track history (hours):
 
Tides and Currents Weather Stations Pressure Air Temp Water Temp Dewpoint Dewpoint Depression Visibility Wind Speed Wind Dir Waves Ship Positions

BBC Switzerland

Last reported at 2014-Aug-24 08:10 UTC. Time now 2014-Sep-19 23:56 UTC.
Position S 28°27' E 032°44'.
Warning: this ship's position is 26 days out of date.

Length 119 m; draft 6.9 m.

Type: Cargo ship. MMSI: 218629000.

Date/timePositionNaut miles runAvg speedWind from/ knotsBaromVisibWave heightAir tempDewpointWater temp
2014-Aug-24 08:10S 28°27' E 032°44'2411.9
2014-Aug-24 06:11S 28°46' E 032°29'5511.9
2014-Aug-24 01:33S 29°24' E 031°43'1413.5
2014-Aug-24 00:33S 29°33' E 031°31'1414.0
2014-Aug-23 23:33S 29°41' E 031°19'1414.5
2014-Aug-23 22:33S 29°50' E 031°06'4 3.7
2014-Aug-23 21:27S 29°53' E 031°02'0 0.0
2014-Aug-23 20:33S 29°53' E 031°02'0 0.0
2014-Aug-23 19:27S 29°53' E 031°02'276 8.0
2014-Aug-22 09:03S 33°25' E 027°35'911.3
2014-Aug-22 08:13S 33°30' E 027°25'1111.7
2014-Aug-22 07:16S 33°36' E 027°14'40713.2
2014-Aug-21 00:20S 34°56' E 019°10'1414.5
2014-Aug-20 23:23S 34°48' E 018°57'  
Track history (hours):
 
Tides and Currents Weather Stations Pressure Air Temp Water Temp Dewpoint Dewpoint Depression Visibility Wind Speed Wind Dir Waves Ship Positions

BBC Switzerland

Last reported at 2014-Aug-24 08:10 UTC. Time now 2014-Sep-19 23:56 UTC.
Position S 28°27' E 032°44'.
Warning: this ship's position is 26 days out of date.

Length 119 m; draft 6.9 m.

Type: Cargo ship. MMSI: 218629000.

Date/timePositionNaut miles runAvg speedWind from/ knotsBaromVisibWave heightAir tempDewpointWater temp
2014-Aug-24 08:10S 28°27' E 032°44'2411.9
2014-Aug-24 06:11S 28°46' E 032°29'5511.9
2014-Aug-24 01:33S 29°24' E 031°43'1413.5
2014-Aug-24 00:33S 29°33' E 031°31'1414.0
2014-Aug-23 23:33S 29°41' E 031°19'1414.5
2014-Aug-23 22:33S 29°50' E 031°06'4 3.7
2014-Aug-23 21:27S 29°53' E 031°02'0 0.0
2014-Aug-23 20:33S 29°53' E 031°02'0 0.0
2014-Aug-23 19:27S 29°53' E 031°02'276 8.0
2014-Aug-22 09:03S 33°25' E 027°35'911.3
2014-Aug-22 08:13S 33°30' E 027°25'1111.7
2014-Aug-22 07:16S 33°36' E 027°14'40713.2
2014-Aug-21 00:20S 34°56' E 019°10'1414.5
2014-Aug-20 23:23S 34°48' E 018°57'  

Dump ship's entire track history